sensor_id;sensor_type;location;lat;lon;timestamp;P1;durP1;ratioP1;P2;durP2;ratioP2
14377;SDS011;7272;53.668;9.578;2022-08-25T00:02:42;4.20;;;2.70;;
14377;SDS011;7272;53.668;9.578;2022-08-25T00:05:44;3.40;;;3.10;;
14377;SDS011;7272;53.668;9.578;2022-08-25T00:08:46;3.43;;;3.07;;
14377;SDS011;7272;53.668;9.578;2022-08-25T00:11:49;3.53;;;3.00;;
14377;SDS011;7272;53.668;9.578;2022-08-25T00:14:51;3.13;;;2.83;;
14377;SDS011;7272;53.668;9.578;2022-08-25T00:17:55;3.63;;;3.23;;
14377;SDS011;7272;53.668;9.578;2022-08-25T00:20:58;3.20;;;3.00;;
14377;SDS011;7272;53.668;9.578;2022-08-25T00:24:00;3.63;;;3.30;;
14377;SDS011;7272;53.668;9.578;2022-08-25T00:27:03;3.17;;;2.93;;
14377;SDS011;7272;53.668;9.578;2022-08-25T00:30:06;2.77;;;2.57;;
14377;SDS011;7272;53.668;9.578;2022-08-25T00:33:10;3.00;;;2.80;;
14377;SDS011;7272;53.668;9.578;2022-08-25T00:36:13;3.17;;;2.90;;
14377;SDS011;7272;53.668;9.578;2022-08-25T00:39:16;3.17;;;2.70;;
14377;SDS011;7272;53.668;9.578;2022-08-25T00:42:20;3.50;;;2.90;;
14377;SDS011;7272;53.668;9.578;2022-08-25T00:45:22;3.60;;;3.30;;
14377;SDS011;7272;53.668;9.578;2022-08-25T00:48:26;3.00;;;2.80;;
14377;SDS011;7272;53.668;9.578;2022-08-25T00:51:29;3.20;;;2.90;;
14377;SDS011;7272;53.668;9.578;2022-08-25T00:54:38;2.90;;;2.70;;
14377;SDS011;7272;53.668;9.578;2022-08-25T00:57:45;4.20;;;2.90;;
14377;SDS011;7272;53.668;9.578;2022-08-25T01:00:51;4.83;;;3.03;;
14377;SDS011;7272;53.668;9.578;2022-08-25T01:03:58;4.30;;;3.90;;
14377;SDS011;7272;53.668;9.578;2022-08-25T01:07:00;5.50;;;3.90;;
14377;SDS011;7272;53.668;9.578;2022-08-25T01:10:03;3.50;;;3.17;;
14377;SDS011;7272;53.668;9.578;2022-08-25T01:13:08;4.20;;;3.70;;
14377;SDS011;7272;53.668;9.578;2022-08-25T01:16:13;3.40;;;3.00;;
14377;SDS011;7272;53.668;9.578;2022-08-25T01:19:17;5.05;;;4.15;;
14377;SDS011;7272;53.668;9.578;2022-08-25T01:22:21;3.80;;;3.40;;
14377;SDS011;7272;53.668;9.578;2022-08-25T01:25:28;4.10;;;3.20;;
14377;SDS011;7272;53.668;9.578;2022-08-25T01:28:38;3.63;;;3.33;;
14377;SDS011;7272;53.668;9.578;2022-08-25T01:32:03;3.57;;;3.27;;
14377;SDS011;7272;53.668;9.578;2022-08-25T01:35:06;3.73;;;3.37;;
14377;SDS011;7272;53.668;9.578;2022-08-25T01:38:10;3.60;;;3.30;;
14377;SDS011;7272;53.668;9.578;2022-08-25T01:41:14;3.23;;;2.93;;
14377;SDS011;7272;53.668;9.578;2022-08-25T01:44:17;4.95;;;4.55;;
14377;SDS011;7272;53.668;9.578;2022-08-25T01:47:19;4.13;;;3.73;;
14377;SDS011;7272;53.668;9.578;2022-08-25T01:50:21;4.33;;;3.70;;
14377;SDS011;7272;53.668;9.578;2022-08-25T01:53:27;4.07;;;3.73;;
14377;SDS011;7272;53.668;9.578;2022-08-25T01:56:30;3.97;;;3.67;;
14377;SDS011;7272;53.668;9.578;2022-08-25T01:59:32;4.95;;;4.45;;
14377;SDS011;7272;53.668;9.578;2022-08-25T02:02:34;4.47;;;4.18;;
14377;SDS011;7272;53.668;9.578;2022-08-25T02:05:36;3.63;;;3.33;;
14377;SDS011;7272;53.668;9.578;2022-08-25T02:08:39;3.80;;;3.50;;
14377;SDS011;7272;53.668;9.578;2022-08-25T02:11:43;3.10;;;2.90;;
14377;SDS011;7272;53.668;9.578;2022-08-25T02:14:47;3.80;;;3.60;;
14377;SDS011;7272;53.668;9.578;2022-08-25T02:17:49;4.25;;;3.75;;
14377;SDS011;7272;53.668;9.578;2022-08-25T02:20:51;4.03;;;3.73;;
14377;SDS011;7272;53.668;9.578;2022-08-25T02:23:55;4.60;;;4.30;;
14377;SDS011;7272;53.668;9.578;2022-08-25T02:26:57;3.93;;;3.47;;
14377;SDS011;7272;53.668;9.578;2022-08-25T02:29:59;4.17;;;3.77;;
14377;SDS011;7272;53.668;9.578;2022-08-25T02:33:01;4.43;;;3.90;;
14377;SDS011;7272;53.668;9.578;2022-08-25T02:36:04;4.27;;;3.87;;
14377;SDS011;7272;53.668;9.578;2022-08-25T02:39:08;4.00;;;3.70;;
14377;SDS011;7272;53.668;9.578;2022-08-25T02:42:11;4.50;;;3.73;;
14377;SDS011;7272;53.668;9.578;2022-08-25T02:45:13;4.90;;;4.00;;
14377;SDS011;7272;53.668;9.578;2022-08-25T02:48:16;5.30;;;4.10;;
14377;SDS011;7272;53.668;9.578;2022-08-25T02:51:19;4.57;;;3.80;;
14377;SDS011;7272;53.668;9.578;2022-08-25T02:54:24;4.27;;;3.87;;
14377;SDS011;7272;53.668;9.578;2022-08-25T02:57:26;5.30;;;4.80;;
14377;SDS011;7272;53.668;9.578;2022-08-25T03:00:28;4.20;;;3.90;;
14377;SDS011;7272;53.668;9.578;2022-08-25T03:03:30;4.40;;;4.00;;
14377;SDS011;7272;53.668;9.578;2022-08-25T03:06:32;4.60;;;3.93;;
14377;SDS011;7272;53.668;9.578;2022-08-25T03:09:35;3.80;;;3.50;;
14377;SDS011;7272;53.668;9.578;2022-08-25T03:12:38;4.37;;;4.00;;
14377;SDS011;7272;53.668;9.578;2022-08-25T03:15:41;4.17;;;3.77;;
14377;SDS011;7272;53.668;9.578;2022-08-25T03:18:43;5.13;;;4.72;;
14377;SDS011;7272;53.668;9.578;2022-08-25T03:21:45;4.95;;;4.55;;
14377;SDS011;7272;53.668;9.578;2022-08-25T03:24:49;4.13;;;3.83;;
14377;SDS011;7272;53.668;9.578;2022-08-25T03:27:51;4.03;;;3.63;;
14377;SDS011;7272;53.668;9.578;2022-08-25T03:30:52;4.97;;;4.53;;
14377;SDS011;7272;53.668;9.578;2022-08-25T03:33:54;4.20;;;3.80;;
14377;SDS011;7272;53.668;9.578;2022-08-25T03:36:56;5.07;;;4.68;;
14377;SDS011;7272;53.668;9.578;2022-08-25T03:40:00;4.75;;;4.30;;
14377;SDS011;7272;53.668;9.578;2022-08-25T03:43:03;5.37;;;4.53;;
14377;SDS011;7272;53.668;9.578;2022-08-25T03:46:05;4.10;;;3.70;;
14377;SDS011;7272;53.668;9.578;2022-08-25T03:49:08;4.30;;;3.90;;
14377;SDS011;7272;53.668;9.578;2022-08-25T03:52:11;4.20;;;3.90;;
14377;SDS011;7272;53.668;9.578;2022-08-25T03:55:14;3.63;;;3.33;;
14377;SDS011;7272;53.668;9.578;2022-08-25T03:58:16;3.93;;;3.53;;
14377;SDS011;7272;53.668;9.578;2022-08-25T04:01:18;5.40;;;5.00;;
14377;SDS011;7272;53.668;9.578;2022-08-25T04:04:20;3.60;;;3.30;;
14377;SDS011;7272;53.668;9.578;2022-08-25T04:07:23;5.23;;;3.80;;
14377;SDS011;7272;53.668;9.578;2022-08-25T04:10:26;3.50;;;3.20;;
14377;SDS011;7272;53.668;9.578;2022-08-25T04:13:29;4.37;;;4.03;;
14377;SDS011;7272;53.668;9.578;2022-08-25T04:16:32;3.47;;;3.20;;
14377;SDS011;7272;53.668;9.578;2022-08-25T04:19:35;6.00;;;5.40;;
14377;SDS011;7272;53.668;9.578;2022-08-25T04:22:38;4.70;;;4.20;;
14377;SDS011;7272;53.668;9.578;2022-08-25T04:25:41;4.20;;;3.80;;
14377;SDS011;7272;53.668;9.578;2022-08-25T04:28:43;4.33;;;3.80;;
14377;SDS011;7272;53.668;9.578;2022-08-25T04:31:46;4.77;;;4.37;;
14377;SDS011;7272;53.668;9.578;2022-08-25T04:34:50;5.93;;;5.32;;
14377;SDS011;7272;53.668;9.578;2022-08-25T04:37:52;6.00;;;5.47;;
14377;SDS011;7272;53.668;9.578;2022-08-25T04:40:56;4.53;;;4.13;;
14377;SDS011;7272;53.668;9.578;2022-08-25T04:43:58;4.03;;;3.73;;
14377;SDS011;7272;53.668;9.578;2022-08-25T04:47:02;4.40;;;4.00;;
14377;SDS011;7272;53.668;9.578;2022-08-25T04:50:04;4.03;;;3.73;;
14377;SDS011;7272;53.668;9.578;2022-08-25T04:53:07;4.30;;;3.90;;
14377;SDS011;7272;53.668;9.578;2022-08-25T04:56:11;4.90;;;4.50;;
14377;SDS011;7272;53.668;9.578;2022-08-25T04:59:15;6.40;;;5.80;;
14377;SDS011;7272;53.668;9.578;2022-08-25T05:02:19;5.40;;;5.00;;
14377;SDS011;7272;53.668;9.578;2022-08-25T05:05:20;4.90;;;4.50;;
14377;SDS011;7272;53.668;9.578;2022-08-25T05:08:22;5.50;;;4.90;;
14377;SDS011;7272;53.668;9.578;2022-08-25T05:11:26;5.03;;;4.63;;
14377;SDS011;7272;53.668;9.578;2022-08-25T05:14:28;6.38;;;5.82;;
14377;SDS011;7272;53.668;9.578;2022-08-25T05:17:30;5.80;;;5.40;;
14377;SDS011;7272;53.668;9.578;2022-08-25T05:20:34;5.37;;;4.87;;
14377;SDS011;7272;53.668;9.578;2022-08-25T05:23:37;5.03;;;4.63;;
14377;SDS011;7272;53.668;9.578;2022-08-25T05:26:41;4.73;;;4.30;;
14377;SDS011;7272;53.668;9.578;2022-08-25T05:29:43;5.80;;;4.63;;
14377;SDS011;7272;53.668;9.578;2022-08-25T05:32:45;5.60;;;4.80;;
14377;SDS011;7272;53.668;9.578;2022-08-25T05:35:47;4.67;;;4.37;;
14377;SDS011;7272;53.668;9.578;2022-08-25T05:38:49;6.10;;;5.60;;
14377;SDS011;7272;53.668;9.578;2022-08-25T05:41:52;5.20;;;4.40;;
14377;SDS011;7272;53.668;9.578;2022-08-25T05:44:54;4.43;;;4.03;;
14377;SDS011;7272;53.668;9.578;2022-08-25T05:47:56;5.50;;;5.00;;
14377;SDS011;7272;53.668;9.578;2022-08-25T05:50:59;4.83;;;4.43;;
14377;SDS011;7272;53.668;9.578;2022-08-25T05:54:02;7.07;;;6.43;;
14377;SDS011;7272;53.668;9.578;2022-08-25T05:57:06;6.45;;;5.95;;
14377;SDS011;7272;53.668;9.578;2022-08-25T06:00:08;4.87;;;4.47;;
14377;SDS011;7272;53.668;9.578;2022-08-25T06:03:14;5.43;;;4.93;;
14377;SDS011;7272;53.668;9.578;2022-08-25T06:06:16;5.43;;;4.80;;
14377;SDS011;7272;53.668;9.578;2022-08-25T06:09:18;5.03;;;4.63;;
14377;SDS011;7272;53.668;9.578;2022-08-25T06:12:22;6.00;;;5.50;;
14377;SDS011;7272;53.668;9.578;2022-08-25T06:15:24;5.43;;;5.03;;
14377;SDS011;7272;53.668;9.578;2022-08-25T06:18:26;5.07;;;4.57;;
14377;SDS011;7272;53.668;9.578;2022-08-25T06:21:28;5.33;;;4.70;;
14377;SDS011;7272;53.668;9.578;2022-08-25T06:24:30;4.93;;;4.50;;
14377;SDS011;7272;53.668;9.578;2022-08-25T06:27:34;4.73;;;4.23;;
14377;SDS011;7272;53.668;9.578;2022-08-25T06:30:37;6.03;;;4.50;;
14377;SDS011;7272;53.668;9.578;2022-08-25T06:33:39;5.43;;;5.03;;
14377;SDS011;7272;53.668;9.578;2022-08-25T06:36:41;6.20;;;5.60;;
14377;SDS011;7272;53.668;9.578;2022-08-25T06:39:43;5.03;;;4.60;;
14377;SDS011;7272;53.668;9.578;2022-08-25T06:42:47;4.83;;;4.43;;
14377;SDS011;7272;53.668;9.578;2022-08-25T06:45:50;5.47;;;4.97;;
14377;SDS011;7272;53.668;9.578;2022-08-25T06:48:52;5.50;;;5.10;;
14377;SDS011;7272;53.668;9.578;2022-08-25T06:51:55;6.63;;;6.03;;
14377;SDS011;7272;53.668;9.578;2022-08-25T06:54:58;6.63;;;5.88;;
14377;SDS011;7272;53.668;9.578;2022-08-25T06:58:02;5.00;;;4.60;;
14377;SDS011;7272;53.668;9.578;2022-08-25T07:01:08;4.80;;;4.40;;
14377;SDS011;7272;53.668;9.578;2022-08-25T07:04:11;4.83;;;4.53;;
14377;SDS011;7272;53.668;9.578;2022-08-25T07:07:13;5.70;;;5.03;;
14377;SDS011;7272;53.668;9.578;2022-08-25T07:10:15;8.20;;;7.50;;
14377;SDS011;7272;53.668;9.578;2022-08-25T07:13:19;8.20;;;7.60;;
14377;SDS011;7272;53.668;9.578;2022-08-25T07:16:21;8.43;;;7.63;;
14377;SDS011;7272;53.668;9.578;2022-08-25T07:19:23;8.93;;;8.13;;
14377;SDS011;7272;53.668;9.578;2022-08-25T07:22:25;8.20;;;7.53;;
14377;SDS011;7272;53.668;9.578;2022-08-25T07:25:27;10.97;;;9.57;;
14377;SDS011;7272;53.668;9.578;2022-08-25T07:28:30;10.37;;;9.47;;
14377;SDS011;7272;53.668;9.578;2022-08-25T07:31:32;11.97;;;10.97;;
14377;SDS011;7272;53.668;9.578;2022-08-25T07:34:35;10.37;;;9.40;;
14377;SDS011;7272;53.668;9.578;2022-08-25T07:37:54;11.37;;;10.37;;
14377;SDS011;7272;53.668;9.578;2022-08-25T07:40:59;13.90;;;12.60;;
14377;SDS011;7272;53.668;9.578;2022-08-25T07:44:04;12.23;;;11.20;;
14377;SDS011;7272;53.668;9.578;2022-08-25T07:47:06;11.20;;;10.20;;
14377;SDS011;7272;53.668;9.578;2022-08-25T07:50:09;14.15;;;13.02;;
14377;SDS011;7272;53.668;9.578;2022-08-25T07:53:13;13.73;;;12.57;;
14377;SDS011;7272;53.668;9.578;2022-08-25T07:56:16;14.20;;;12.47;;
14377;SDS011;7272;53.668;9.578;2022-08-25T07:59:20;10.87;;;9.80;;
14377;SDS011;7272;53.668;9.578;2022-08-25T08:02:22;10.07;;;9.27;;
14377;SDS011;7272;53.668;9.578;2022-08-25T08:05:24;10.17;;;9.37;;
14377;SDS011;7272;53.668;9.578;2022-08-25T08:08:27;12.55;;;11.40;;
14377;SDS011;7272;53.668;9.578;2022-08-25T08:11:29;13.13;;;11.82;;
14377;SDS011;7272;53.668;9.578;2022-08-25T08:14:35;11.17;;;10.27;;
14377;SDS011;7272;53.668;9.578;2022-08-25T08:17:37;12.20;;;11.10;;
14377;SDS011;7272;53.668;9.578;2022-08-25T08:20:41;11.37;;;10.20;;
14377;SDS011;7272;53.668;9.578;2022-08-25T08:23:44;10.23;;;9.23;;
14377;SDS011;7272;53.668;9.578;2022-08-25T08:26:47;13.88;;;12.68;;
14377;SDS011;7272;53.668;9.578;2022-08-25T08:29:50;11.60;;;10.70;;
14377;SDS011;7272;53.668;9.578;2022-08-25T08:32:53;10.47;;;9.67;;
14377;SDS011;7272;53.668;9.578;2022-08-25T08:35:56;10.47;;;9.50;;
14377;SDS011;7272;53.668;9.578;2022-08-25T08:39:00;11.40;;;10.27;;
14377;SDS011;7272;53.668;9.578;2022-08-25T08:42:05;8.00;;;7.30;;
14377;SDS011;7272;53.668;9.578;2022-08-25T08:45:26;9.77;;;9.07;;
14377;SDS011;7272;53.668;9.578;2022-08-25T08:48:39;10.30;;;9.50;;
14377;SDS011;7272;53.668;9.578;2022-08-25T08:51:55;9.63;;;8.93;;
14377;SDS011;7272;53.668;9.578;2022-08-25T08:55:01;11.00;;;10.00;;
14377;SDS011;7272;53.668;9.578;2022-08-25T08:58:06;10.15;;;9.20;;
14377;SDS011;7272;53.668;9.578;2022-08-25T09:01:15;10.35;;;9.55;;
14377;SDS011;7272;53.668;9.578;2022-08-25T09:04:25;11.88;;;10.98;;
14377;SDS011;7272;53.668;9.578;2022-08-25T09:07:34;10.10;;;9.25;;
14377;SDS011;7272;53.668;9.578;2022-08-25T09:10:48;8.67;;;7.97;;
14377;SDS011;7272;53.668;9.578;2022-08-25T09:14:01;11.43;;;8.27;;
14377;SDS011;7272;53.668;9.578;2022-08-25T09:17:12;8.60;;;7.43;;
14377;SDS011;7272;53.668;9.578;2022-08-25T09:20:28;8.03;;;7.40;;
14377;SDS011;7272;53.668;9.578;2022-08-25T09:23:41;10.03;;;9.17;;
14377;SDS011;7272;53.668;9.578;2022-08-25T09:26:52;8.10;;;7.50;;
14377;SDS011;7272;53.668;9.578;2022-08-25T09:30:04;6.93;;;6.43;;
14377;SDS011;7272;53.668;9.578;2022-08-25T09:33:10;7.77;;;7.10;;
14377;SDS011;7272;53.668;9.578;2022-08-25T09:36:15;7.97;;;7.38;;
14377;SDS011;7272;53.668;9.578;2022-08-25T09:39:17;8.38;;;7.78;;
14377;SDS011;7272;53.668;9.578;2022-08-25T09:42:19;6.93;;;6.43;;
14377;SDS011;7272;53.668;9.578;2022-08-25T09:48:48;7.80;;;7.20;;
14377;SDS011;7272;53.668;9.578;2022-08-25T09:51:52;6.93;;;6.35;;
14377;SDS011;7272;53.668;9.578;2022-08-25T09:54:56;6.53;;;6.03;;
14377;SDS011;7272;53.668;9.578;2022-08-25T09:58:00;6.75;;;6.25;;
14377;SDS011;7272;53.668;9.578;2022-08-25T10:01:18;5.88;;;5.47;;
14377;SDS011;7272;53.668;9.578;2022-08-25T10:04:25;7.07;;;6.32;;
14377;SDS011;7272;53.668;9.578;2022-08-25T10:07:29;6.35;;;5.93;;
14377;SDS011;7272;53.668;9.578;2022-08-25T10:10:37;6.20;;;5.70;;
14377;SDS011;7272;53.668;9.578;2022-08-25T10:13:46;7.00;;;6.50;;
14377;SDS011;7272;53.668;9.578;2022-08-25T10:16:50;6.53;;;5.80;;
14377;SDS011;7272;53.668;9.578;2022-08-25T10:23:16;6.65;;;6.15;;
14377;SDS011;7272;53.668;9.578;2022-08-25T10:26:20;8.50;;;7.80;;
14377;SDS011;7272;53.668;9.578;2022-08-25T10:29:35;8.13;;;7.38;;
14377;SDS011;7272;53.668;9.578;2022-08-25T10:33:01;6.55;;;6.05;;
14377;SDS011;7272;53.668;9.578;2022-08-25T10:36:12;6.28;;;5.78;;
14377;SDS011;7272;53.668;9.578;2022-08-25T10:39:24;7.28;;;6.68;;
14377;SDS011;7272;53.668;9.578;2022-08-25T10:42:36;7.07;;;6.57;;
14377;SDS011;7272;53.668;9.578;2022-08-25T10:45:44;6.68;;;6.18;;
14377;SDS011;7272;53.668;9.578;2022-08-25T10:48:50;7.85;;;7.05;;
14377;SDS011;7272;53.668;9.578;2022-08-25T10:52:00;7.15;;;6.65;;
14377;SDS011;7272;53.668;9.578;2022-08-25T10:55:06;6.45;;;6.05;;
14377;SDS011;7272;53.668;9.578;2022-08-25T10:58:31;6.70;;;6.10;;
14377;SDS011;7272;53.668;9.578;2022-08-25T11:01:56;7.38;;;6.82;;
14377;SDS011;7272;53.668;9.578;2022-08-25T11:05:12;8.48;;;7.88;;
14377;SDS011;7272;53.668;9.578;2022-08-25T11:08:33;6.93;;;6.32;;
14377;SDS011;7272;53.668;9.578;2022-08-25T11:11:39;6.07;;;5.57;;
14377;SDS011;7272;53.668;9.578;2022-08-25T11:14:48;7.03;;;6.53;;
14377;SDS011;7272;53.668;9.578;2022-08-25T11:17:55;7.78;;;7.13;;
14377;SDS011;7272;53.668;9.578;2022-08-25T11:21:02;7.05;;;6.45;;
14377;SDS011;7272;53.668;9.578;2022-08-25T11:24:20;6.50;;;6.00;;
14377;SDS011;7272;53.668;9.578;2022-08-25T11:27:41;7.18;;;6.53;;
14377;SDS011;7272;53.668;9.578;2022-08-25T11:30:48;6.28;;;5.88;;
14377;SDS011;7272;53.668;9.578;2022-08-25T11:33:52;5.90;;;5.45;;
14377;SDS011;7272;53.668;9.578;2022-08-25T11:37:00;6.05;;;5.65;;
14377;SDS011;7272;53.668;9.578;2022-08-25T11:40:12;5.82;;;5.07;;
14377;SDS011;7272;53.668;9.578;2022-08-25T11:43:30;6.13;;;5.53;;
14377;SDS011;7272;53.668;9.578;2022-08-25T11:46:48;6.25;;;5.60;;
14377;SDS011;7272;53.668;9.578;2022-08-25T11:50:02;6.17;;;5.67;;
14377;SDS011;7272;53.668;9.578;2022-08-25T11:53:16;5.90;;;5.18;;
14377;SDS011;7272;53.668;9.578;2022-08-25T11:56:31;5.38;;;4.88;;
14377;SDS011;7272;53.668;9.578;2022-08-25T12:10:21;4.07;;;3.45;;
14377;SDS011;7272;53.668;9.578;2022-08-25T12:13:39;4.07;;;3.78;;
14377;SDS011;7272;53.668;9.578;2022-08-25T12:16:58;4.18;;;3.88;;
14377;SDS011;7272;53.668;9.578;2022-08-25T12:20:16;4.45;;;3.60;;
14377;SDS011;7272;53.668;9.578;2022-08-25T12:23:25;4.00;;;3.70;;
14377;SDS011;7272;53.668;9.578;2022-08-25T12:26:29;4.10;;;3.70;;
14377;SDS011;7272;53.668;9.578;2022-08-25T12:29:41;4.10;;;3.80;;
14377;SDS011;7272;53.668;9.578;2022-08-25T12:32:53;3.90;;;3.55;;
14377;SDS011;7272;53.668;9.578;2022-08-25T12:36:06;4.00;;;3.60;;
14377;SDS011;7272;53.668;9.578;2022-08-25T12:39:17;5.30;;;3.80;;
14377;SDS011;7272;53.668;9.578;2022-08-25T12:42:21;4.20;;;3.63;;
14377;SDS011;7272;53.668;9.578;2022-08-25T12:45:49;4.22;;;3.50;;
14377;SDS011;7272;53.668;9.578;2022-08-25T12:48:53;3.60;;;3.13;;
14377;SDS011;7272;53.668;9.578;2022-08-25T12:51:57;3.65;;;3.00;;
14377;SDS011;7272;53.668;9.578;2022-08-25T12:55:05;3.08;;;2.88;;
14377;SDS011;7272;53.668;9.578;2022-08-25T12:58:11;3.28;;;3.00;;
14377;SDS011;7272;53.668;9.578;2022-08-25T13:01:16;3.05;;;2.85;;
14377;SDS011;7272;53.668;9.578;2022-08-25T13:08:21;3.58;;;3.08;;
14377;SDS011;7272;53.668;9.578;2022-08-25T13:11:35;4.05;;;2.85;;
14377;SDS011;7272;53.668;9.578;2022-08-25T13:14:42;4.93;;;2.90;;
14377;SDS011;7272;53.668;9.578;2022-08-25T13:17:47;3.70;;;3.15;;
14377;SDS011;7272;53.668;9.578;2022-08-25T13:20:50;3.70;;;3.10;;
14377;SDS011;7272;53.668;9.578;2022-08-25T13:23:55;4.57;;;3.60;;
14377;SDS011;7272;53.668;9.578;2022-08-25T13:27:02;3.50;;;3.03;;
14377;SDS011;7272;53.668;9.578;2022-08-25T13:30:15;3.25;;;3.00;;
14377;SDS011;7272;53.668;9.578;2022-08-25T13:33:24;3.33;;;2.80;;
14377;SDS011;7272;53.668;9.578;2022-08-25T13:36:28;4.22;;;3.45;;
14377;SDS011;7272;53.668;9.578;2022-08-25T13:39:49;3.53;;;3.15;;
14377;SDS011;7272;53.668;9.578;2022-08-25T13:42:52;3.40;;;3.10;;
14377;SDS011;7272;53.668;9.578;2022-08-25T13:45:56;3.10;;;2.70;;
14377;SDS011;7272;53.668;9.578;2022-08-25T13:49:04;3.55;;;2.40;;
14377;SDS011;7272;53.668;9.578;2022-08-25T13:52:07;2.92;;;2.72;;
14377;SDS011;7272;53.668;9.578;2022-08-25T13:55:20;3.00;;;2.80;;
14377;SDS011;7272;53.668;9.578;2022-08-25T13:58:24;3.50;;;3.20;;
14377;SDS011;7272;53.668;9.578;2022-08-25T14:01:28;4.40;;;3.13;;
14377;SDS011;7272;53.668;9.578;2022-08-25T14:04:44;3.13;;;2.80;;
14377;SDS011;7272;53.668;9.578;2022-08-25T14:07:51;3.60;;;3.27;;
14377;SDS011;7272;53.668;9.578;2022-08-25T14:11:00;3.83;;;3.22;;
14377;SDS011;7272;53.668;9.578;2022-08-25T14:14:07;3.40;;;3.10;;
14377;SDS011;7272;53.668;9.578;2022-08-25T14:17:11;3.17;;;2.88;;
14377;SDS011;7272;53.668;9.578;2022-08-25T14:20:23;3.35;;;2.70;;
14377;SDS011;7272;53.668;9.578;2022-08-25T14:23:28;3.53;;;3.20;;
14377;SDS011;7272;53.668;9.578;2022-08-25T14:26:31;3.08;;;2.63;;
14377;SDS011;7272;53.668;9.578;2022-08-25T14:29:33;2.88;;;2.55;;
14377;SDS011;7272;53.668;9.578;2022-08-25T14:32:35;3.17;;;2.88;;
14377;SDS011;7272;53.668;9.578;2022-08-25T14:35:38;3.85;;;2.92;;
14377;SDS011;7272;53.668;9.578;2022-08-25T14:38:42;4.03;;;3.00;;
14377;SDS011;7272;53.668;9.578;2022-08-25T14:41:44;4.13;;;2.92;;
14377;SDS011;7272;53.668;9.578;2022-08-25T14:44:46;3.30;;;3.00;;
14377;SDS011;7272;53.668;9.578;2022-08-25T14:47:49;3.40;;;2.58;;
14377;SDS011;7272;53.668;9.578;2022-08-25T14:50:53;3.40;;;3.10;;
14377;SDS011;7272;53.668;9.578;2022-08-25T14:53:58;4.40;;;2.97;;
14377;SDS011;7272;53.668;9.578;2022-08-25T14:57:03;3.22;;;2.95;;
14377;SDS011;7272;53.668;9.578;2022-08-25T15:00:05;3.45;;;3.15;;
14377;SDS011;7272;53.668;9.578;2022-08-25T15:03:09;3.60;;;3.30;;
14377;SDS011;7272;53.668;9.578;2022-08-25T15:06:15;3.50;;;3.20;;
14377;SDS011;7272;53.668;9.578;2022-08-25T15:09:18;3.47;;;3.17;;
14377;SDS011;7272;53.668;9.578;2022-08-25T15:12:20;3.45;;;3.15;;
14377;SDS011;7272;53.668;9.578;2022-08-25T15:15:22;4.03;;;3.80;;
14377;SDS011;7272;53.668;9.578;2022-08-25T15:18:25;4.45;;;3.88;;
14377;SDS011;7272;53.668;9.578;2022-08-25T15:21:29;3.75;;;3.50;;
14377;SDS011;7272;53.668;9.578;2022-08-25T15:24:31;4.32;;;3.97;;
14377;SDS011;7272;53.668;9.578;2022-08-25T15:27:33;4.50;;;3.22;;
14377;SDS011;7272;53.668;9.578;2022-08-25T15:30:35;5.13;;;3.70;;
14377;SDS011;7272;53.668;9.578;2022-08-25T15:33:38;3.95;;;3.50;;
14377;SDS011;7272;53.668;9.578;2022-08-25T15:36:41;13.30;;;4.00;;
14377;SDS011;7272;53.668;9.578;2022-08-25T15:39:43;3.63;;;3.28;;
14377;SDS011;7272;53.668;9.578;2022-08-25T15:42:47;3.67;;;3.38;;
14377;SDS011;7272;53.668;9.578;2022-08-25T15:45:49;3.95;;;3.65;;
14377;SDS011;7272;53.668;9.578;2022-08-25T15:48:51;3.10;;;2.90;;
14377;SDS011;7272;53.668;9.578;2022-08-25T15:51:54;3.35;;;3.08;;
14377;SDS011;7272;53.668;9.578;2022-08-25T15:54:56;3.85;;;3.45;;
14377;SDS011;7272;53.668;9.578;2022-08-25T15:57:58;3.90;;;3.30;;
14377;SDS011;7272;53.668;9.578;2022-08-25T16:01:00;4.03;;;3.50;;
14377;SDS011;7272;53.668;9.578;2022-08-25T16:04:02;3.28;;;3.03;;
14377;SDS011;7272;53.668;9.578;2022-08-25T16:07:05;3.77;;;3.47;;
14377;SDS011;7272;53.668;9.578;2022-08-25T16:10:08;3.70;;;3.40;;
14377;SDS011;7272;53.668;9.578;2022-08-25T16:13:12;3.65;;;3.35;;
14377;SDS011;7272;53.668;9.578;2022-08-25T16:16:15;3.63;;;3.33;;
14377;SDS011;7272;53.668;9.578;2022-08-25T16:19:17;3.70;;;3.10;;
14377;SDS011;7272;53.668;9.578;2022-08-25T16:22:20;4.28;;;3.83;;
14377;SDS011;7272;53.668;9.578;2022-08-25T16:25:22;4.00;;;3.58;;
14377;SDS011;7272;53.668;9.578;2022-08-25T16:28:24;4.78;;;3.15;;
14377;SDS011;7272;53.668;9.578;2022-08-25T16:31:26;4.00;;;3.15;;
14377;SDS011;7272;53.668;9.578;2022-08-25T16:34:29;4.35;;;3.70;;
14377;SDS011;7272;53.668;9.578;2022-08-25T16:37:33;3.30;;;3.10;;
14377;SDS011;7272;53.668;9.578;2022-08-25T16:40:36;3.60;;;3.22;;
14377;SDS011;7272;53.668;9.578;2022-08-25T16:43:39;3.60;;;3.20;;
14377;SDS011;7272;53.668;9.578;2022-08-25T16:46:42;3.40;;;3.10;;
14377;SDS011;7272;53.668;9.578;2022-08-25T16:49:45;3.30;;;2.85;;
14377;SDS011;7272;53.668;9.578;2022-08-25T16:52:48;3.72;;;3.42;;
14377;SDS011;7272;53.668;9.578;2022-08-25T16:56:08;3.15;;;2.85;;
14377;SDS011;7272;53.668;9.578;2022-08-25T16:59:10;3.70;;;2.72;;
14377;SDS011;7272;53.668;9.578;2022-08-25T17:02:13;3.08;;;2.88;;
14377;SDS011;7272;53.668;9.578;2022-08-25T17:05:15;3.30;;;3.00;;
14377;SDS011;7272;53.668;9.578;2022-08-25T17:08:18;3.05;;;2.85;;
14377;SDS011;7272;53.668;9.578;2022-08-25T17:11:30;3.30;;;3.00;;
14377;SDS011;7272;53.668;9.578;2022-08-25T17:14:35;3.55;;;3.25;;
14377;SDS011;7272;53.668;9.578;2022-08-25T17:17:37;3.60;;;3.30;;
14377;SDS011;7272;53.668;9.578;2022-08-25T17:20:39;3.70;;;3.08;;
14377;SDS011;7272;53.668;9.578;2022-08-25T17:23:43;4.13;;;3.10;;
14377;SDS011;7272;53.668;9.578;2022-08-25T17:26:46;3.30;;;3.00;;
14377;SDS011;7272;53.668;9.578;2022-08-25T17:29:49;4.32;;;3.05;;
14377;SDS011;7272;53.668;9.578;2022-08-25T17:32:51;3.13;;;2.83;;
14377;SDS011;7272;53.668;9.578;2022-08-25T17:35:53;3.63;;;3.30;;
14377;SDS011;7272;53.668;9.578;2022-08-25T17:38:58;4.57;;;3.70;;
14377;SDS011;7272;53.668;9.578;2022-08-25T17:42:00;4.00;;;3.47;;
14377;SDS011;7272;53.668;9.578;2022-08-25T17:45:02;4.82;;;2.92;;
14377;SDS011;7272;53.668;9.578;2022-08-25T17:48:05;7.72;;;4.60;;
14377;SDS011;7272;53.668;9.578;2022-08-25T17:51:07;3.25;;;2.60;;
14377;SDS011;7272;53.668;9.578;2022-08-25T17:54:10;3.15;;;2.35;;
14377;SDS011;7272;53.668;9.578;2022-08-25T17:57:13;2.97;;;2.60;;
14377;SDS011;7272;53.668;9.578;2022-08-25T18:00:16;3.28;;;2.53;;
14377;SDS011;7272;53.668;9.578;2022-08-25T18:03:19;6.40;;;3.40;;
14377;SDS011;7272;53.668;9.578;2022-08-25T18:06:21;3.58;;;2.65;;
14377;SDS011;7272;53.668;9.578;2022-08-25T18:09:25;4.38;;;3.00;;
14377;SDS011;7272;53.668;9.578;2022-08-25T18:12:27;3.30;;;2.80;;
14377;SDS011;7272;53.668;9.578;2022-08-25T18:15:29;3.90;;;2.58;;
14377;SDS011;7272;53.668;9.578;2022-08-25T18:18:32;4.20;;;2.90;;
14377;SDS011;7272;53.668;9.578;2022-08-25T18:21:34;4.82;;;2.83;;
14377;SDS011;7272;53.668;9.578;2022-08-25T18:24:37;4.32;;;2.83;;
14377;SDS011;7272;53.668;9.578;2022-08-25T18:27:39;5.10;;;3.20;;
14377;SDS011;7272;53.668;9.578;2022-08-25T18:30:42;5.22;;;3.10;;
14377;SDS011;7272;53.668;9.578;2022-08-25T18:33:44;4.15;;;2.70;;
14377;SDS011;7272;53.668;9.578;2022-08-25T18:36:46;5.05;;;3.15;;
14377;SDS011;7272;53.668;9.578;2022-08-25T18:39:49;7.32;;;3.22;;
14377;SDS011;7272;53.668;9.578;2022-08-25T18:43:10;6.60;;;3.83;;
14377;SDS011;7272;53.668;9.578;2022-08-25T18:46:13;5.35;;;4.15;;
14377;SDS011;7272;53.668;9.578;2022-08-25T18:49:15;3.55;;;2.60;;
14377;SDS011;7272;53.668;9.578;2022-08-25T18:52:17;4.75;;;3.53;;
14377;SDS011;7272;53.668;9.578;2022-08-25T18:55:22;3.22;;;2.60;;
14377;SDS011;7272;53.668;9.578;2022-08-25T18:58:25;4.25;;;2.92;;
14377;SDS011;7272;53.668;9.578;2022-08-25T19:01:27;3.50;;;3.03;;
14377;SDS011;7272;53.668;9.578;2022-08-25T19:04:29;4.38;;;2.92;;
14377;SDS011;7272;53.668;9.578;2022-08-25T19:07:31;4.93;;;3.25;;
14377;SDS011;7272;53.668;9.578;2022-08-25T19:10:35;2.97;;;2.50;;
14377;SDS011;7272;53.668;9.578;2022-08-25T19:13:38;4.70;;;2.97;;